sensor_id;sensor_type;location;lat;lon;timestamp;P1;durP1;ratioP1;P2;durP2;ratioP2
25687;SDS011;17407;51.120;3.702;2023-06-26T00:01:41;8.45;;;4.60;;
25687;SDS011;17407;51.120;3.702;2023-06-26T00:04:07;8.77;;;4.53;;
25687;SDS011;17407;51.120;3.702;2023-06-26T00:06:39;11.20;;;5.13;;
25687;SDS011;17407;51.120;3.702;2023-06-26T00:09:05;9.38;;;4.45;;
25687;SDS011;17407;51.120;3.702;2023-06-26T00:11:31;10.23;;;5.15;;
25687;SDS011;17407;51.120;3.702;2023-06-26T00:13:58;11.32;;;5.07;;
25687;SDS011;17407;51.120;3.702;2023-06-26T00:16:25;7.50;;;4.72;;
25687;SDS011;17407;51.120;3.702;2023-06-26T00:18:51;10.25;;;4.93;;
25687;SDS011;17407;51.120;3.702;2023-06-26T00:21:17;8.48;;;5.00;;
25687;SDS011;17407;51.120;3.702;2023-06-26T00:23:44;10.50;;;5.28;;
25687;SDS011;17407;51.120;3.702;2023-06-26T00:26:10;11.98;;;5.95;;
25687;SDS011;17407;51.120;3.702;2023-06-26T00:28:36;9.93;;;5.22;;
25687;SDS011;17407;51.120;3.702;2023-06-26T00:31:02;9.05;;;5.35;;
25687;SDS011;17407;51.120;3.702;2023-06-26T00:33:27;10.40;;;5.13;;
25687;SDS011;17407;51.120;3.702;2023-06-26T00:35:53;10.00;;;5.47;;
25687;SDS011;17407;51.120;3.702;2023-06-26T00:38:19;8.65;;;5.05;;
25687;SDS011;17407;51.120;3.702;2023-06-26T00:40:44;6.88;;;5.28;;
25687;SDS011;17407;51.120;3.702;2023-06-26T00:43:10;10.18;;;4.43;;
25687;SDS011;17407;51.120;3.702;2023-06-26T00:45:36;9.35;;;5.78;;
25687;SDS011;17407;51.120;3.702;2023-06-26T00:48:01;11.52;;;5.78;;
25687;SDS011;17407;51.120;3.702;2023-06-26T00:50:28;7.57;;;4.80;;
25687;SDS011;17407;51.120;3.702;2023-06-26T00:52:54;12.02;;;5.28;;
25687;SDS011;17407;51.120;3.702;2023-06-26T00:55:25;13.30;;;5.47;;
25687;SDS011;17407;51.120;3.702;2023-06-26T00:57:54;11.80;;;5.40;;
25687;SDS011;17407;51.120;3.702;2023-06-26T01:00:20;13.75;;;5.75;;
25687;SDS011;17407;51.120;3.702;2023-06-26T01:02:46;8.07;;;4.95;;
25687;SDS011;17407;51.120;3.702;2023-06-26T01:05:11;10.82;;;5.43;;
25687;SDS011;17407;51.120;3.702;2023-06-26T01:07:44;10.07;;;5.22;;
25687;SDS011;17407;51.120;3.702;2023-06-26T01:10:09;15.98;;;6.07;;
25687;SDS011;17407;51.120;3.702;2023-06-26T01:12:35;8.57;;;5.10;;
25687;SDS011;17407;51.120;3.702;2023-06-26T01:15:03;10.00;;;5.35;;
25687;SDS011;17407;51.120;3.702;2023-06-26T01:17:29;12.63;;;5.00;;
25687;SDS011;17407;51.120;3.702;2023-06-26T01:19:57;10.98;;;6.35;;
25687;SDS011;17407;51.120;3.702;2023-06-26T01:27:35;11.80;;;6.07;;
25687;SDS011;17407;51.120;3.702;2023-06-26T01:30:02;12.20;;;5.70;;
25687;SDS011;17407;51.120;3.702;2023-06-26T01:32:29;10.80;;;5.53;;
25687;SDS011;17407;51.120;3.702;2023-06-26T01:34:56;17.58;;;5.70;;
25687;SDS011;17407;51.120;3.702;2023-06-26T01:37:23;13.85;;;5.80;;
25687;SDS011;17407;51.120;3.702;2023-06-26T01:39:48;12.50;;;6.18;;
25687;SDS011;17407;51.120;3.702;2023-06-26T01:42:14;12.27;;;5.93;;
25687;SDS011;17407;51.120;3.702;2023-06-26T01:44:42;14.95;;;6.30;;
25687;SDS011;17407;51.120;3.702;2023-06-26T01:47:10;13.85;;;6.35;;
25687;SDS011;17407;51.120;3.702;2023-06-26T01:55:29;16.65;;;6.63;;
25687;SDS011;17407;51.120;3.702;2023-06-26T01:58:09;16.73;;;6.95;;
25687;SDS011;17407;51.120;3.702;2023-06-26T02:00:35;17.73;;;7.20;;
25687;SDS011;17407;51.120;3.702;2023-06-26T02:03:02;19.77;;;7.07;;
25687;SDS011;17407;51.120;3.702;2023-06-26T02:05:30;16.75;;;7.28;;
25687;SDS011;17407;51.120;3.702;2023-06-26T02:07:58;15.38;;;6.88;;
25687;SDS011;17407;51.120;3.702;2023-06-26T02:10:26;14.77;;;6.90;;
25687;SDS011;17407;51.120;3.702;2023-06-26T02:12:52;19.75;;;7.78;;
25687;SDS011;17407;51.120;3.702;2023-06-26T02:15:17;22.00;;;8.23;;
25687;SDS011;17407;51.120;3.702;2023-06-26T02:17:43;13.60;;;7.38;;
25687;SDS011;17407;51.120;3.702;2023-06-26T02:20:13;19.70;;;7.88;;
25687;SDS011;17407;51.120;3.702;2023-06-26T02:22:39;17.05;;;6.90;;
25687;SDS011;17407;51.120;3.702;2023-06-26T02:25:04;17.52;;;7.18;;
25687;SDS011;17407;51.120;3.702;2023-06-26T02:27:30;18.70;;;7.43;;
25687;SDS011;17407;51.120;3.702;2023-06-26T02:29:56;26.48;;;9.00;;
25687;SDS011;17407;51.120;3.702;2023-06-26T02:32:22;24.02;;;8.20;;
25687;SDS011;17407;51.120;3.702;2023-06-26T02:34:47;27.95;;;9.10;;
25687;SDS011;17407;51.120;3.702;2023-06-26T02:37:13;23.17;;;7.85;;
25687;SDS011;17407;51.120;3.702;2023-06-26T02:39:38;23.75;;;7.72;;
25687;SDS011;17407;51.120;3.702;2023-06-26T02:42:04;24.52;;;7.53;;
25687;SDS011;17407;51.120;3.702;2023-06-26T02:44:30;16.83;;;8.02;;
25687;SDS011;17407;51.120;3.702;2023-06-26T02:46:56;22.63;;;7.78;;
25687;SDS011;17407;51.120;3.702;2023-06-26T02:49:21;19.10;;;6.97;;
25687;SDS011;17407;51.120;3.702;2023-06-26T02:51:47;20.75;;;7.22;;
25687;SDS011;17407;51.120;3.702;2023-06-26T02:54:13;21.20;;;7.93;;
25687;SDS011;17407;51.120;3.702;2023-06-26T02:56:38;21.05;;;7.20;;
25687;SDS011;17407;51.120;3.702;2023-06-26T02:59:04;27.23;;;8.82;;
25687;SDS011;17407;51.120;3.702;2023-06-26T03:01:30;14.75;;;6.65;;
25687;SDS011;17407;51.120;3.702;2023-06-26T03:03:55;26.52;;;8.52;;
25687;SDS011;17407;51.120;3.702;2023-06-26T03:06:21;22.23;;;7.80;;
25687;SDS011;17407;51.120;3.702;2023-06-26T03:08:46;19.52;;;7.90;;
25687;SDS011;17407;51.120;3.702;2023-06-26T03:11:12;21.45;;;7.47;;
25687;SDS011;17407;51.120;3.702;2023-06-26T03:13:38;24.98;;;8.30;;
25687;SDS011;17407;51.120;3.702;2023-06-26T03:16:03;21.27;;;7.32;;
25687;SDS011;17407;51.120;3.702;2023-06-26T03:18:29;22.27;;;7.78;;
25687;SDS011;17407;51.120;3.702;2023-06-26T03:20:55;18.75;;;8.38;;
25687;SDS011;17407;51.120;3.702;2023-06-26T03:23:22;20.38;;;8.38;;
25687;SDS011;17407;51.120;3.702;2023-06-26T03:25:48;21.98;;;7.80;;
25687;SDS011;17407;51.120;3.702;2023-06-26T03:28:14;29.85;;;8.15;;
25687;SDS011;17407;51.120;3.702;2023-06-26T03:30:40;24.88;;;7.55;;
25687;SDS011;17407;51.120;3.702;2023-06-26T03:33:06;25.55;;;8.90;;
25687;SDS011;17407;51.120;3.702;2023-06-26T03:35:31;20.42;;;7.88;;
25687;SDS011;17407;51.120;3.702;2023-06-26T03:37:57;25.55;;;8.32;;
25687;SDS011;17407;51.120;3.702;2023-06-26T03:40:23;24.40;;;7.65;;
25687;SDS011;17407;51.120;3.702;2023-06-26T03:42:49;17.98;;;7.38;;
25687;SDS011;17407;51.120;3.702;2023-06-26T03:45:15;19.02;;;7.32;;
25687;SDS011;17407;51.120;3.702;2023-06-26T03:47:40;20.70;;;7.72;;
25687;SDS011;17407;51.120;3.702;2023-06-26T03:50:06;24.40;;;8.18;;
25687;SDS011;17407;51.120;3.702;2023-06-26T03:52:32;22.60;;;7.97;;
25687;SDS011;17407;51.120;3.702;2023-06-26T03:54:58;21.13;;;7.57;;
25687;SDS011;17407;51.120;3.702;2023-06-26T03:57:24;19.80;;;6.90;;
25687;SDS011;17407;51.120;3.702;2023-06-26T03:59:50;20.02;;;6.80;;
25687;SDS011;17407;51.120;3.702;2023-06-26T04:02:16;21.45;;;6.93;;
25687;SDS011;17407;51.120;3.702;2023-06-26T04:04:42;26.73;;;7.57;;
25687;SDS011;17407;51.120;3.702;2023-06-26T04:07:08;25.15;;;8.63;;
25687;SDS011;17407;51.120;3.702;2023-06-26T04:09:34;22.52;;;7.55;;
25687;SDS011;17407;51.120;3.702;2023-06-26T04:11:59;23.67;;;7.40;;
25687;SDS011;17407;51.120;3.702;2023-06-26T04:14:25;23.45;;;6.78;;
25687;SDS011;17407;51.120;3.702;2023-06-26T04:16:51;24.50;;;7.22;;
25687;SDS011;17407;51.120;3.702;2023-06-26T04:19:17;19.20;;;6.95;;
25687;SDS011;17407;51.120;3.702;2023-06-26T04:21:43;23.55;;;7.00;;
25687;SDS011;17407;51.120;3.702;2023-06-26T04:24:08;16.40;;;6.10;;
25687;SDS011;17407;51.120;3.702;2023-06-26T04:26:34;20.48;;;7.28;;
25687;SDS011;17407;51.120;3.702;2023-06-26T04:29:00;25.63;;;6.57;;
25687;SDS011;17407;51.120;3.702;2023-06-26T04:31:26;21.42;;;6.43;;
25687;SDS011;17407;51.120;3.702;2023-06-26T04:33:51;14.98;;;5.68;;
25687;SDS011;17407;51.120;3.702;2023-06-26T04:36:19;17.30;;;5.40;;
25687;SDS011;17407;51.120;3.702;2023-06-26T04:38:46;16.20;;;5.70;;
25687;SDS011;17407;51.120;3.702;2023-06-26T04:41:13;19.13;;;6.25;;
25687;SDS011;17407;51.120;3.702;2023-06-26T04:43:39;18.15;;;5.75;;
25687;SDS011;17407;51.120;3.702;2023-06-26T04:46:05;18.85;;;7.00;;
25687;SDS011;17407;51.120;3.702;2023-06-26T04:48:32;16.90;;;5.28;;
25687;SDS011;17407;51.120;3.702;2023-06-26T04:50:58;26.98;;;5.70;;
25687;SDS011;17407;51.120;3.702;2023-06-26T04:53:23;17.90;;;5.93;;
25687;SDS011;17407;51.120;3.702;2023-06-26T04:55:52;13.30;;;5.25;;
25687;SDS011;17407;51.120;3.702;2023-06-26T04:58:18;13.82;;;5.07;;
25687;SDS011;17407;51.120;3.702;2023-06-26T05:00:44;20.10;;;7.00;;
25687;SDS011;17407;51.120;3.702;2023-06-26T05:03:14;16.42;;;4.75;;
25687;SDS011;17407;51.120;3.702;2023-06-26T05:05:42;19.45;;;5.68;;
25687;SDS011;17407;51.120;3.702;2023-06-26T05:08:23;15.07;;;5.22;;
25687;SDS011;17407;51.120;3.702;2023-06-26T05:10:51;10.18;;;4.30;;
25687;SDS011;17407;51.120;3.702;2023-06-26T05:13:26;15.80;;;5.00;;
25687;SDS011;17407;51.120;3.702;2023-06-26T05:15:53;13.05;;;4.22;;
25687;SDS011;17407;51.120;3.702;2023-06-26T05:18:19;18.30;;;4.85;;
25687;SDS011;17407;51.120;3.702;2023-06-26T05:20:45;10.52;;;4.20;;
25687;SDS011;17407;51.120;3.702;2023-06-26T05:23:11;15.43;;;4.22;;
25687;SDS011;17407;51.120;3.702;2023-06-26T05:25:37;14.68;;;4.22;;
25687;SDS011;17407;51.120;3.702;2023-06-26T05:28:04;9.63;;;3.88;;
25687;SDS011;17407;51.120;3.702;2023-06-26T05:30:30;10.63;;;3.70;;
25687;SDS011;17407;51.120;3.702;2023-06-26T05:32:57;13.93;;;3.95;;
25687;SDS011;17407;51.120;3.702;2023-06-26T05:35:25;15.73;;;3.72;;
25687;SDS011;17407;51.120;3.702;2023-06-26T05:37:55;10.00;;;3.20;;
25687;SDS011;17407;51.120;3.702;2023-06-26T05:40:22;17.23;;;3.38;;
25687;SDS011;17407;51.120;3.702;2023-06-26T05:42:48;9.52;;;3.67;;
25687;SDS011;17407;51.120;3.702;2023-06-26T05:45:14;17.27;;;2.97;;
25687;SDS011;17407;51.120;3.702;2023-06-26T05:47:40;11.80;;;3.25;;
25687;SDS011;17407;51.120;3.702;2023-06-26T05:50:07;13.43;;;3.40;;
25687;SDS011;17407;51.120;3.702;2023-06-26T05:52:34;15.05;;;3.13;;
25687;SDS011;17407;51.120;3.702;2023-06-26T05:55:00;6.25;;;2.65;;
25687;SDS011;17407;51.120;3.702;2023-06-26T05:57:27;9.68;;;3.53;;
25687;SDS011;17407;51.120;3.702;2023-06-26T05:59:54;13.85;;;3.30;;
25687;SDS011;17407;51.120;3.702;2023-06-26T06:02:20;7.32;;;2.55;;
25687;SDS011;17407;51.120;3.702;2023-06-26T06:04:46;8.57;;;2.45;;
25687;SDS011;17407;51.120;3.702;2023-06-26T06:07:12;10.23;;;3.00;;
25687;SDS011;17407;51.120;3.702;2023-06-26T06:09:38;13.55;;;3.40;;
25687;SDS011;17407;51.120;3.702;2023-06-26T06:12:04;9.13;;;2.47;;
25687;SDS011;17407;51.120;3.702;2023-06-26T06:14:31;11.90;;;3.10;;
25687;SDS011;17407;51.120;3.702;2023-06-26T06:17:00;8.68;;;2.53;;
25687;SDS011;17407;51.120;3.702;2023-06-26T06:19:26;10.95;;;3.28;;
25687;SDS011;17407;51.120;3.702;2023-06-26T06:21:52;8.23;;;2.65;;
25687;SDS011;17407;51.120;3.702;2023-06-26T06:24:17;11.57;;;2.85;;
25687;SDS011;17407;51.120;3.702;2023-06-26T06:26:43;10.75;;;2.90;;
25687;SDS011;17407;51.120;3.702;2023-06-26T06:29:08;11.50;;;2.80;;
25687;SDS011;17407;51.120;3.702;2023-06-26T06:31:34;8.18;;;2.92;;
25687;SDS011;17407;51.120;3.702;2023-06-26T06:34:00;11.35;;;3.10;;
25687;SDS011;17407;51.120;3.702;2023-06-26T06:36:26;9.85;;;3.08;;
25687;SDS011;17407;51.120;3.702;2023-06-26T06:38:52;7.57;;;2.53;;
25687;SDS011;17407;51.120;3.702;2023-06-26T06:41:19;9.70;;;2.53;;
25687;SDS011;17407;51.120;3.702;2023-06-26T06:43:45;7.53;;;2.67;;
25687;SDS011;17407;51.120;3.702;2023-06-26T06:46:11;7.72;;;2.30;;
25687;SDS011;17407;51.120;3.702;2023-06-26T06:48:37;7.68;;;2.55;;
25687;SDS011;17407;51.120;3.702;2023-06-26T06:51:03;14.13;;;2.63;;
25687;SDS011;17407;51.120;3.702;2023-06-26T06:53:29;10.20;;;2.40;;
25687;SDS011;17407;51.120;3.702;2023-06-26T06:55:55;13.27;;;3.40;;
25687;SDS011;17407;51.120;3.702;2023-06-26T06:58:21;8.63;;;2.40;;
25687;SDS011;17407;51.120;3.702;2023-06-26T07:00:47;13.55;;;2.95;;
25687;SDS011;17407;51.120;3.702;2023-06-26T07:03:14;8.63;;;2.47;;
25687;SDS011;17407;51.120;3.702;2023-06-26T07:05:42;6.70;;;2.83;;
25687;SDS011;17407;51.120;3.702;2023-06-26T07:08:08;12.07;;;2.40;;
25687;SDS011;17407;51.120;3.702;2023-06-26T07:10:34;6.93;;;2.08;;
25687;SDS011;17407;51.120;3.702;2023-06-26T07:13:00;8.73;;;2.20;;
25687;SDS011;17407;51.120;3.702;2023-06-26T07:15:25;7.88;;;2.85;;
25687;SDS011;17407;51.120;3.702;2023-06-26T07:17:51;7.55;;;2.50;;
25687;SDS011;17407;51.120;3.702;2023-06-26T07:20:17;8.25;;;2.20;;
25687;SDS011;17407;51.120;3.702;2023-06-26T07:22:43;8.38;;;2.70;;
25687;SDS011;17407;51.120;3.702;2023-06-26T07:25:12;8.98;;;2.75;;
25687;SDS011;17407;51.120;3.702;2023-06-26T07:27:38;7.13;;;2.72;;
25687;SDS011;17407;51.120;3.702;2023-06-26T07:30:05;8.35;;;2.58;;
25687;SDS011;17407;51.120;3.702;2023-06-26T07:32:33;9.18;;;2.70;;
25687;SDS011;17407;51.120;3.702;2023-06-26T07:34:59;11.27;;;3.05;;
25687;SDS011;17407;51.120;3.702;2023-06-26T07:37:25;5.82;;;2.55;;
25687;SDS011;17407;51.120;3.702;2023-06-26T07:39:51;5.70;;;2.28;;
25687;SDS011;17407;51.120;3.702;2023-06-26T07:42:17;7.97;;;2.75;;
25687;SDS011;17407;51.120;3.702;2023-06-26T07:44:44;8.10;;;2.42;;
25687;SDS011;17407;51.120;3.702;2023-06-26T07:47:10;9.45;;;2.22;;
25687;SDS011;17407;51.120;3.702;2023-06-26T07:49:36;9.85;;;2.95;;
25687;SDS011;17407;51.120;3.702;2023-06-26T07:52:04;7.35;;;2.22;;
25687;SDS011;17407;51.120;3.702;2023-06-26T07:54:36;11.63;;;2.47;;
25687;SDS011;17407;51.120;3.702;2023-06-26T07:57:05;6.50;;;2.35;;
25687;SDS011;17407;51.120;3.702;2023-06-26T07:59:34;12.25;;;2.90;;
25687;SDS011;17407;51.120;3.702;2023-06-26T08:02:00;10.45;;;2.60;;
25687;SDS011;17407;51.120;3.702;2023-06-26T08:04:27;6.13;;;2.28;;
25687;SDS011;17407;51.120;3.702;2023-06-26T08:06:55;7.13;;;2.28;;
25687;SDS011;17407;51.120;3.702;2023-06-26T08:09:22;6.75;;;2.00;;
25687;SDS011;17407;51.120;3.702;2023-06-26T08:11:49;6.68;;;2.63;;
25687;SDS011;17407;51.120;3.702;2023-06-26T08:14:15;8.60;;;2.45;;
25687;SDS011;17407;51.120;3.702;2023-06-26T08:16:42;9.15;;;2.40;;
25687;SDS011;17407;51.120;3.702;2023-06-26T08:19:09;9.13;;;2.55;;
25687;SDS011;17407;51.120;3.702;2023-06-26T08:21:37;4.32;;;2.17;;
25687;SDS011;17407;51.120;3.702;2023-06-26T08:24:02;7.43;;;2.65;;
25687;SDS011;17407;51.120;3.702;2023-06-26T08:26:28;6.35;;;2.20;;
25687;SDS011;17407;51.120;3.702;2023-06-26T08:28:54;6.57;;;2.30;;
25687;SDS011;17407;51.120;3.702;2023-06-26T08:31:20;10.18;;;2.53;;
25687;SDS011;17407;51.120;3.702;2023-06-26T08:33:46;7.65;;;2.10;;
25687;SDS011;17407;51.120;3.702;2023-06-26T08:36:12;5.32;;;2.13;;
25687;SDS011;17407;51.120;3.702;2023-06-26T08:38:38;5.75;;;1.88;;
25687;SDS011;17407;51.120;3.702;2023-06-26T08:41:05;7.75;;;2.17;;
25687;SDS011;17407;51.120;3.702;2023-06-26T08:43:34;6.32;;;2.60;;
25687;SDS011;17407;51.120;3.702;2023-06-26T08:46:01;8.13;;;2.42;;
25687;SDS011;17407;51.120;3.702;2023-06-26T08:48:29;5.15;;;2.17;;
25687;SDS011;17407;51.120;3.702;2023-06-26T08:51:00;7.10;;;2.42;;
25687;SDS011;17407;51.120;3.702;2023-06-26T08:53:35;4.85;;;2.03;;
25687;SDS011;17407;51.120;3.702;2023-06-26T08:56:24;7.25;;;2.38;;
25687;SDS011;17407;51.120;3.702;2023-06-26T08:58:53;7.25;;;2.97;;
25687;SDS011;17407;51.120;3.702;2023-06-26T09:01:20;8.23;;;2.30;;
25687;SDS011;17407;51.120;3.702;2023-06-26T09:03:46;4.35;;;1.98;;
25687;SDS011;17407;51.120;3.702;2023-06-26T09:06:14;7.78;;;1.95;;
25687;SDS011;17407;51.120;3.702;2023-06-26T09:08:40;8.98;;;2.63;;
25687;SDS011;17407;51.120;3.702;2023-06-26T09:11:06;7.47;;;2.53;;
25687;SDS011;17407;51.120;3.702;2023-06-26T09:13:31;6.93;;;2.60;;
25687;SDS011;17407;51.120;3.702;2023-06-26T09:15:57;5.63;;;2.13;;
25687;SDS011;17407;51.120;3.702;2023-06-26T09:18:24;3.28;;;1.83;;
25687;SDS011;17407;51.120;3.702;2023-06-26T09:20:50;5.32;;;2.38;;
25687;SDS011;17407;51.120;3.702;2023-06-26T09:23:16;8.80;;;2.33;;
25687;SDS011;17407;51.120;3.702;2023-06-26T09:25:50;8.35;;;2.40;;
25687;SDS011;17407;51.120;3.702;2023-06-26T09:28:27;4.57;;;2.22;;
25687;SDS011;17407;51.120;3.702;2023-06-26T09:30:53;4.80;;;1.83;;
25687;SDS011;17407;51.120;3.702;2023-06-26T09:33:19;5.93;;;2.40;;
25687;SDS011;17407;51.120;3.702;2023-06-26T09:35:46;2.85;;;1.90;;
25687;SDS011;17407;51.120;3.702;2023-06-26T09:38:12;10.13;;;2.17;;
25687;SDS011;17407;51.120;3.702;2023-06-26T09:40:41;4.93;;;2.17;;
25687;SDS011;17407;51.120;3.702;2023-06-26T09:43:48;7.20;;;2.25;;
25687;SDS011;17407;51.120;3.702;2023-06-26T09:46:25;4.80;;;2.38;;
25687;SDS011;17407;51.120;3.702;2023-06-26T09:49:04;6.18;;;2.67;;
25687;SDS011;17407;51.120;3.702;2023-06-26T09:51:31;9.32;;;2.15;;
25687;SDS011;17407;51.120;3.702;2023-06-26T09:54:02;8.43;;;2.30;;
25687;SDS011;17407;51.120;3.702;2023-06-26T09:56:31;4.75;;;1.85;;
25687;SDS011;17407;51.120;3.702;2023-06-26T09:58:58;5.68;;;2.25;;
25687;SDS011;17407;51.120;3.702;2023-06-26T10:01:28;9.43;;;2.38;;
25687;SDS011;17407;51.120;3.702;2023-06-26T10:03:55;4.70;;;2.35;;
25687;SDS011;17407;51.120;3.702;2023-06-26T10:06:27;6.80;;;2.10;;
25687;SDS011;17407;51.120;3.702;2023-06-26T10:08:56;7.43;;;2.10;;
25687;SDS011;17407;51.120;3.702;2023-06-26T10:11:24;4.95;;;2.20;;
25687;SDS011;17407;51.120;3.702;2023-06-26T10:13:55;3.88;;;1.65;;
25687;SDS011;17407;51.120;3.702;2023-06-26T10:16:26;5.47;;;2.13;;
25687;SDS011;17407;51.120;3.702;2023-06-26T10:18:55;4.22;;;2.28;;
25687;SDS011;17407;51.120;3.702;2023-06-26T10:21:24;3.53;;;1.92;;
25687;SDS011;17407;51.120;3.702;2023-06-26T10:23:54;4.95;;;2.10;;
25687;SDS011;17407;51.120;3.702;2023-06-26T10:26:21;5.82;;;2.05;;
25687;SDS011;17407;51.120;3.702;2023-06-26T10:28:49;6.90;;;1.83;;
25687;SDS011;17407;51.120;3.702;2023-06-26T10:31:18;6.80;;;2.08;;
25687;SDS011;17407;51.120;3.702;2023-06-26T10:33:48;5.50;;;1.60;;
25687;SDS011;17407;51.120;3.702;2023-06-26T10:36:15;5.15;;;1.77;;
25687;SDS011;17407;51.120;3.702;2023-06-26T10:39:03;4.93;;;2.60;;
25687;SDS011;17407;51.120;3.702;2023-06-26T10:41:36;7.40;;;2.00;;
25687;SDS011;17407;51.120;3.702;2023-06-26T10:44:09;7.35;;;2.03;;
25687;SDS011;17407;51.120;3.702;2023-06-26T10:49:29;4.95;;;1.90;;
25687;SDS011;17407;51.120;3.702;2023-06-26T10:52:37;4.63;;;2.03;;
25687;SDS011;17407;51.120;3.702;2023-06-26T10:55:03;6.20;;;1.98;;
25687;SDS011;17407;51.120;3.702;2023-06-26T10:57:29;6.65;;;2.15;;
25687;SDS011;17407;51.120;3.702;2023-06-26T11:00:10;9.13;;;2.63;;
25687;SDS011;17407;51.120;3.702;2023-06-26T11:02:52;11.70;;;2.40;;
25687;SDS011;17407;51.120;3.702;2023-06-26T11:05:32;3.58;;;1.92;;
25687;SDS011;17407;51.120;3.702;2023-06-26T11:08:48;5.50;;;2.08;;
25687;SDS011;17407;51.120;3.702;2023-06-26T11:11:19;8.80;;;2.53;;
25687;SDS011;17407;51.120;3.702;2023-06-26T11:13:46;4.03;;;2.03;;
25687;SDS011;17407;51.120;3.702;2023-06-26T11:16:13;4.57;;;2.67;;
25687;SDS011;17407;51.120;3.702;2023-06-26T11:18:40;12.45;;;2.55;;
25687;SDS011;17407;51.120;3.702;2023-06-26T11:23:40;5.43;;;1.60;;
25687;SDS011;17407;51.120;3.702;2023-06-26T11:26:15;6.30;;;2.35;;
25687;SDS011;17407;51.120;3.702;2023-06-26T11:31:28;6.60;;;2.03;;
25687;SDS011;17407;51.120;3.702;2023-06-26T11:33:58;6.03;;;1.63;;
25687;SDS011;17407;51.120;3.702;2023-06-26T11:36:25;4.07;;;2.03;;
25687;SDS011;17407;51.120;3.702;2023-06-26T11:38:52;4.30;;;2.03;;
25687;SDS011;17407;51.120;3.702;2023-06-26T11:41:26;6.20;;;2.38;;
25687;SDS011;17407;51.120;3.702;2023-06-26T11:43:53;5.35;;;2.10;;
25687;SDS011;17407;51.120;3.702;2023-06-26T11:46:26;3.50;;;2.00;;
25687;SDS011;17407;51.120;3.702;2023-06-26T11:48:52;5.00;;;1.80;;
25687;SDS011;17407;51.120;3.702;2023-06-26T11:51:18;6.72;;;2.00;;
25687;SDS011;17407;51.120;3.702;2023-06-26T11:53:44;6.35;;;2.22;;
25687;SDS011;17407;51.120;3.702;2023-06-26T11:56:14;6.38;;;2.05;;
25687;SDS011;17407;51.120;3.702;2023-06-26T12:01:33;10.15;;;2.03;;
25687;SDS011;17407;51.120;3.702;2023-06-26T12:04:07;5.80;;;2.00;;
25687;SDS011;17407;51.120;3.702;2023-06-26T12:06:34;2.47;;;1.42;;
25687;SDS011;17407;51.120;3.702;2023-06-26T12:09:02;6.63;;;1.80;;
25687;SDS011;17407;51.120;3.702;2023-06-26T12:11:30;5.90;;;2.05;;
25687;SDS011;17407;51.120;3.702;2023-06-26T12:13:58;4.45;;;1.80;;
25687;SDS011;17407;51.120;3.702;2023-06-26T12:16:24;4.90;;;1.90;;
25687;SDS011;17407;51.120;3.702;2023-06-26T12:18:50;4.82;;;2.55;;
25687;SDS011;17407;51.120;3.702;2023-06-26T12:24:00;2.90;;;1.88;;
25687;SDS011;17407;51.120;3.702;2023-06-26T12:26:26;5.93;;;2.00;;
25687;SDS011;17407;51.120;3.702;2023-06-26T12:28:54;6.45;;;2.33;;
25687;SDS011;17407;51.120;3.702;2023-06-26T12:31:29;7.30;;;1.80;;
25687;SDS011;17407;51.120;3.702;2023-06-26T12:33:56;6.20;;;1.80;;
25687;SDS011;17407;51.120;3.702;2023-06-26T12:36:21;6.38;;;2.00;;
25687;SDS011;17407;51.120;3.702;2023-06-26T12:38:48;4.93;;;1.60;;
25687;SDS011;17407;51.120;3.702;2023-06-26T12:41:14;4.88;;;1.95;;
25687;SDS011;17407;51.120;3.702;2023-06-26T12:43:41;3.58;;;1.60;;
25687;SDS011;17407;51.120;3.702;2023-06-26T12:46:07;3.90;;;1.75;;
25687;SDS011;17407;51.120;3.702;2023-06-26T12:48:37;5.70;;;1.98;;
25687;SDS011;17407;51.120;3.702;2023-06-26T12:51:11;8.00;;;1.75;;
25687;SDS011;17407;51.120;3.702;2023-06-26T12:53:41;6.60;;;2.03;;
25687;SDS011;17407;51.120;3.702;2023-06-26T12:56:07;5.57;;;1.80;;
25687;SDS011;17407;51.120;3.702;2023-06-26T12:58:34;4.68;;;1.75;;
25687;SDS011;17407;51.120;3.702;2023-06-26T13:01:02;4.10;;;1.80;;
25687;SDS011;17407;51.120;3.702;2023-06-26T13:03:42;6.15;;;2.05;;
25687;SDS011;17407;51.120;3.702;2023-06-26T13:06:07;3.25;;;1.58;;
25687;SDS011;17407;51.120;3.702;2023-06-26T13:08:33;2.70;;;1.70;;
25687;SDS011;17407;51.120;3.702;2023-06-26T13:10:59;2.35;;;1.50;;
25687;SDS011;17407;51.120;3.702;2023-06-26T13:13:25;1.90;;;1.50;;
25687;SDS011;17407;51.120;3.702;2023-06-26T13:15:51;5.20;;;1.90;;
25687;SDS011;17407;51.120;3.702;2023-06-26T13:18:17;2.95;;;1.88;;
25687;SDS011;17407;51.120;3.702;2023-06-26T13:20:44;2.78;;;1.80;;
25687;SDS011;17407;51.120;3.702;2023-06-26T13:23:09;8.68;;;2.30;;
25687;SDS011;17407;51.120;3.702;2023-06-26T13:25:35;8.52;;;2.33;;
25687;SDS011;17407;51.120;3.702;2023-06-26T13:28:00;6.53;;;2.10;;
25687;SDS011;17407;51.120;3.702;2023-06-26T13:30:26;4.47;;;2.00;;
25687;SDS011;17407;51.120;3.702;2023-06-26T13:32:52;3.50;;;1.88;;
25687;SDS011;17407;51.120;3.702;2023-06-26T13:35:18;4.85;;;1.83;;
25687;SDS011;17407;51.120;3.702;2023-06-26T13:37:43;6.35;;;1.90;;
25687;SDS011;17407;51.120;3.702;2023-06-26T13:40:09;3.90;;;1.95;;
25687;SDS011;17407;51.120;3.702;2023-06-26T13:42:35;5.25;;;2.30;;
25687;SDS011;17407;51.120;3.702;2023-06-26T13:45:04;4.88;;;2.13;;
25687;SDS011;17407;51.120;3.702;2023-06-26T13:47:31;7.50;;;2.38;;
25687;SDS011;17407;51.120;3.702;2023-06-26T13:49:56;4.65;;;2.38;;
25687;SDS011;17407;51.120;3.702;2023-06-26T13:52:23;3.80;;;1.67;;
25687;SDS011;17407;51.120;3.702;2023-06-26T13:54:56;5.28;;;2.30;;
25687;SDS011;17407;51.120;3.702;2023-06-26T13:57:21;7.18;;;2.25;;
25687;SDS011;17407;51.120;3.702;2023-06-26T13:59:47;3.17;;;1.83;;
25687;SDS011;17407;51.120;3.702;2023-06-26T14:02:13;9.80;;;1.95;;
25687;SDS011;17407;51.120;3.702;2023-06-26T14:04:39;5.70;;;2.28;;
25687;SDS011;17407;51.120;3.702;2023-06-26T14:07:05;7.35;;;2.13;;
25687;SDS011;17407;51.120;3.702;2023-06-26T14:09:32;6.32;;;2.20;;
25687;SDS011;17407;51.120;3.702;2023-06-26T14:11:57;7.55;;;2.33;;
25687;SDS011;17407;51.120;3.702;2023-06-26T14:14:26;4.13;;;2.42;;
25687;SDS011;17407;51.120;3.702;2023-06-26T14:16:52;4.88;;;2.17;;
25687;SDS011;17407;51.120;3.702;2023-06-26T14:19:18;9.02;;;2.58;;
25687;SDS011;17407;51.120;3.702;2023-06-26T14:21:44;6.90;;;2.20;;
25687;SDS011;17407;51.120;3.702;2023-06-26T14:24:09;3.97;;;1.90;;
25687;SDS011;17407;51.120;3.702;2023-06-26T14:26:35;7.45;;;2.10;;
25687;SDS011;17407;51.120;3.702;2023-06-26T14:29:01;7.45;;;1.80;;
25687;SDS011;17407;51.120;3.702;2023-06-26T14:31:27;5.78;;;2.10;;
25687;SDS011;17407;51.120;3.702;2023-06-26T14:33:53;2.33;;;1.58;;
25687;SDS011;17407;51.120;3.702;2023-06-26T14:36:19;4.35;;;1.98;;
25687;SDS011;17407;51.120;3.702;2023-06-26T14:38:45;4.18;;;1.50;;
25687;SDS011;17407;51.120;3.702;2023-06-26T14:41:11;7.63;;;1.95;;
25687;SDS011;17407;51.120;3.702;2023-06-26T14:43:37;3.97;;;1.90;;
25687;SDS011;17407;51.120;3.702;2023-06-26T14:46:03;5.22;;;2.20;;
25687;SDS011;17407;51.120;3.702;2023-06-26T14:48:29;4.90;;;1.70;;
25687;SDS011;17407;51.120;3.702;2023-06-26T14:50:55;3.55;;;1.50;;
25687;SDS011;17407;51.120;3.702;2023-06-26T14:53:20;2.80;;;1.80;;
25687;SDS011;17407;51.120;3.702;2023-06-26T14:55:46;8.70;;;2.08;;
25687;SDS011;17407;51.120;3.702;2023-06-26T14:58:12;4.72;;;2.10;;
25687;SDS011;17407;51.120;3.702;2023-06-26T15:00:37;2.63;;;1.63;;
25687;SDS011;17407;51.120;3.702;2023-06-26T15:03:03;7.70;;;2.13;;
25687;SDS011;17407;51.120;3.702;2023-06-26T15:05:29;7.78;;;2.10;;
25687;SDS011;17407;51.120;3.702;2023-06-26T15:07:54;5.30;;;2.33;;
25687;SDS011;17407;51.120;3.702;2023-06-26T15:10:20;6.45;;;1.70;;